Shelton, CT (06484)

3:12 AM EDT on August 28, 2014 (GMT -0400)
Shelton High area | Change Station
CLOSE
Current Station
Personal Weather Station
Location: Shelton, CT
Elevation: 430 ft
Nearby Weather Stations

Elev 430 ft 41.33 °N, 73.12 °W | Updated 13 minutes ago

Clear
Clear
65.1 °F
Feels Like 65.1 °F
N
4.2
Wind Variable Wind from ESE

Today
High -- | Low -- °F
--% Chance of Precip.
Yesterday
High -- | Low -- °F
Precip. -- in
6:14 AM 7:31 PM
Waxing Crescent, 7% visible
Pressure 29.85 in
Visibility 10.0 miles
Clouds Few 6000 ft
Dew Point 65 °F
Humidity 99%
Rainfall 0.00 in
Snow Depth Not available.
UV 0 out of 12
Pollen 8.90 out of 12
Ozone Good
PM2.5 Good
Flu Activity Not available.
METAR KBDR 280652Z 01005KT 10SM FEW060 22/19 A2985 RMK AO2 SLP107 T02170189

More Conditions Fewer Conditions

Pressure 29.85 in
Visibility 10.0 miles
Clouds Few 6000 ft
Dew Point 65 °F
Humidity 99%
Rainfall 0.00 in
Snow Depth Not available.
UV 0 out of 12
Pollen 8.90 out of 12
Ozone Good
PM2.5 Good
Flu Activity Not available.
METAR KBDR 280652Z 01005KT 10SM FEW060 22/19 A2985 RMK AO2 SLP107 T02170189

More Conditions Fewer Conditions

10-Day Weather Forecast

Almanac

Astronomy

Aug. 28, 2014 Rise Set
Actual Time 6:14 AM EDT 7:31 PM EDT
Civil Twilight 5:46 AM EDT 8:00 PM EDT
Nautical Twilight 5:11 AM EDT 8:34 PM EDT
Astronomical Twilight 4:35 AM EDT 9:10 PM EDT
Moon 9:06 AM EDT 8:51 PM EDT
Length of Visible Light 14h 14m
Length of Day
13h 17m
Tomorrow will be 2m 38s shorter.
Waxing Crescent, 7% of the Moon is Illuminated
Today
Waxing Crescent
Sep 2
First Quarter
Sep 8
Full
Sep 15
Last Quarter
Sep 24
New

Today's Extremes

State Highs State Lows

Community

WunderPhotos

Upload Photos

1,747,912 photos uploaded!

Nearby

Air Quality

  Air Quality AQ Index Pollutant
Yesterday Moderate
OZONE
Yesterday Moderate
PM2.5
Current Good
OZONE
Current Good
PM2.5
Thursday Good
PM2.5
Thursday Good
OZONE

Snow Depth

Station Depth Elevation
No new snow has been reported.

Earthquake Activity

City Distance Mag. Time & Date
No recent earthquake activity has been reported nearby.
Minimum magnitude displayed is 2.5.

Coastal Water Temperatures

Place Temperature
Kings Point, NY 73.9 °F
Bridgeport, CT 75.9 °F

Nearby Weather Stations